sensor_id;sensor_type;location;lat;lon;timestamp;P1;durP1;ratioP1;P2;durP2;ratioP2
80231;SDS011;74189;42.124;24.752;2023-11-21T00:00:14;15.60;;;6.45;;
80231;SDS011;74189;42.124;24.752;2023-11-21T00:02:41;17.05;;;7.18;;
80231;SDS011;74189;42.124;24.752;2023-11-21T00:05:08;15.23;;;7.43;;
80231;SDS011;74189;42.124;24.752;2023-11-21T00:07:34;17.02;;;7.00;;
80231;SDS011;74189;42.124;24.752;2023-11-21T00:10:01;15.60;;;7.32;;
80231;SDS011;74189;42.124;24.752;2023-11-21T00:12:27;18.85;;;7.43;;
80231;SDS011;74189;42.124;24.752;2023-11-21T00:14:54;12.68;;;7.82;;
80231;SDS011;74189;42.124;24.752;2023-11-21T00:17:20;19.35;;;8.32;;
80231;SDS011;74189;42.124;24.752;2023-11-21T00:19:46;15.65;;;7.70;;
80231;SDS011;74189;42.124;24.752;2023-11-21T00:22:11;11.15;;;6.97;;
80231;SDS011;74189;42.124;24.752;2023-11-21T00:24:37;18.38;;;6.72;;
80231;SDS011;74189;42.124;24.752;2023-11-21T00:27:02;14.05;;;7.15;;
80231;SDS011;74189;42.124;24.752;2023-11-21T00:29:28;14.98;;;6.82;;
80231;SDS011;74189;42.124;24.752;2023-11-21T00:31:54;19.42;;;7.78;;
80231;SDS011;74189;42.124;24.752;2023-11-21T00:34:19;21.27;;;7.93;;
80231;SDS011;74189;42.124;24.752;2023-11-21T00:36:45;17.92;;;7.32;;
80231;SDS011;74189;42.124;24.752;2023-11-21T00:39:11;15.95;;;7.70;;
80231;SDS011;74189;42.124;24.752;2023-11-21T00:41:37;20.80;;;8.70;;
80231;SDS011;74189;42.124;24.752;2023-11-21T00:44:02;20.35;;;9.45;;
80231;SDS011;74189;42.124;24.752;2023-11-21T00:46:28;19.42;;;9.00;;
80231;SDS011;74189;42.124;24.752;2023-11-21T00:48:54;22.30;;;9.30;;
80231;SDS011;74189;42.124;24.752;2023-11-21T00:51:20;19.92;;;9.18;;
80231;SDS011;74189;42.124;24.752;2023-11-21T00:53:47;17.52;;;9.13;;
80231;SDS011;74189;42.124;24.752;2023-11-21T00:56:13;23.05;;;9.95;;
80231;SDS011;74189;42.124;24.752;2023-11-21T00:58:40;15.63;;;9.40;;
80231;SDS011;74189;42.124;24.752;2023-11-21T01:01:11;13.43;;;8.82;;
80231;SDS011;74189;42.124;24.752;2023-11-21T01:03:37;30.08;;;10.38;;
80231;SDS011;74189;42.124;24.752;2023-11-21T01:06:03;20.80;;;9.93;;
80231;SDS011;74189;42.124;24.752;2023-11-21T01:08:32;21.40;;;9.50;;
80231;SDS011;74189;42.124;24.752;2023-11-21T01:10:58;21.23;;;9.30;;
80231;SDS011;74189;42.124;24.752;2023-11-21T01:13:24;18.73;;;8.68;;
80231;SDS011;74189;42.124;24.752;2023-11-21T01:15:54;18.48;;;9.80;;
80231;SDS011;74189;42.124;24.752;2023-11-21T01:18:20;19.08;;;9.82;;
80231;SDS011;74189;42.124;24.752;2023-11-21T01:20:46;18.88;;;8.88;;
80231;SDS011;74189;42.124;24.752;2023-11-21T01:23:12;21.30;;;9.57;;
80231;SDS011;74189;42.124;24.752;2023-11-21T01:25:38;17.63;;;9.25;;
80231;SDS011;74189;42.124;24.752;2023-11-21T01:28:04;18.50;;;9.75;;
80231;SDS011;74189;42.124;24.752;2023-11-21T01:30:30;30.95;;;9.55;;
80231;SDS011;74189;42.124;24.752;2023-11-21T01:32:57;17.88;;;9.05;;
80231;SDS011;74189;42.124;24.752;2023-11-21T01:35:23;19.80;;;9.38;;
80231;SDS011;74189;42.124;24.752;2023-11-21T01:37:49;15.88;;;8.15;;
80231;SDS011;74189;42.124;24.752;2023-11-21T01:40:15;16.02;;;7.95;;
80231;SDS011;74189;42.124;24.752;2023-11-21T01:42:41;17.20;;;8.50;;
80231;SDS011;74189;42.124;24.752;2023-11-21T01:45:09;22.50;;;9.50;;
80231;SDS011;74189;42.124;24.752;2023-11-21T01:47:35;29.73;;;11.18;;
80231;SDS011;74189;42.124;24.752;2023-11-21T01:50:03;30.08;;;11.77;;
80231;SDS011;74189;42.124;24.752;2023-11-21T01:52:34;27.90;;;11.77;;
80231;SDS011;74189;42.124;24.752;2023-11-21T01:55:00;36.33;;;12.23;;
80231;SDS011;74189;42.124;24.752;2023-11-21T01:57:27;33.35;;;12.77;;
80231;SDS011;74189;42.124;24.752;2023-11-21T01:59:53;24.80;;;11.52;;
80231;SDS011;74189;42.124;24.752;2023-11-21T02:02:19;30.08;;;11.73;;
80231;SDS011;74189;42.124;24.752;2023-11-21T02:04:45;26.40;;;10.85;;
80231;SDS011;74189;42.124;24.752;2023-11-21T02:07:11;33.10;;;12.20;;
80231;SDS011;74189;42.124;24.752;2023-11-21T02:09:37;25.90;;;11.70;;
80231;SDS011;74189;42.124;24.752;2023-11-21T02:12:03;24.70;;;10.80;;
80231;SDS011;74189;42.124;24.752;2023-11-21T02:14:30;26.17;;;10.68;;
80231;SDS011;74189;42.124;24.752;2023-11-21T02:16:56;24.98;;;9.95;;
80231;SDS011;74189;42.124;24.752;2023-11-21T02:19:23;17.25;;;8.45;;
80231;SDS011;74189;42.124;24.752;2023-11-21T02:21:51;20.60;;;9.13;;
80231;SDS011;74189;42.124;24.752;2023-11-21T02:24:20;18.15;;;7.75;;
80231;SDS011;74189;42.124;24.752;2023-11-21T02:26:47;16.02;;;8.00;;
80231;SDS011;74189;42.124;24.752;2023-11-21T02:29:16;13.18;;;7.43;;
80231;SDS011;74189;42.124;24.752;2023-11-21T02:31:43;15.55;;;7.72;;
80231;SDS011;74189;42.124;24.752;2023-11-21T02:34:16;14.38;;;8.85;;
80231;SDS011;74189;42.124;24.752;2023-11-21T02:36:43;18.45;;;8.57;;
80231;SDS011;74189;42.124;24.752;2023-11-21T02:39:12;15.20;;;8.70;;
80231;SDS011;74189;42.124;24.752;2023-11-21T02:41:38;20.50;;;9.15;;
80231;SDS011;74189;42.124;24.752;2023-11-21T02:44:04;19.25;;;8.68;;
80231;SDS011;74189;42.124;24.752;2023-11-21T02:46:31;18.92;;;10.02;;
80231;SDS011;74189;42.124;24.752;2023-11-21T02:48:59;18.95;;;9.23;;
80231;SDS011;74189;42.124;24.752;2023-11-21T02:51:25;19.55;;;8.80;;
80231;SDS011;74189;42.124;24.752;2023-11-21T02:53:51;21.33;;;9.38;;
80231;SDS011;74189;42.124;24.752;2023-11-21T02:56:17;20.75;;;10.25;;
80231;SDS011;74189;42.124;24.752;2023-11-21T02:58:43;26.58;;;10.60;;
80231;SDS011;74189;42.124;24.752;2023-11-21T03:01:09;22.38;;;10.00;;
80231;SDS011;74189;42.124;24.752;2023-11-21T03:03:36;28.10;;;9.95;;
80231;SDS011;74189;42.124;24.752;2023-11-21T03:06:05;18.98;;;9.55;;
80231;SDS011;74189;42.124;24.752;2023-11-21T03:08:31;20.02;;;8.88;;
80231;SDS011;74189;42.124;24.752;2023-11-21T03:10:57;19.00;;;9.57;;
80231;SDS011;74189;42.124;24.752;2023-11-21T03:13:23;15.13;;;8.60;;
80231;SDS011;74189;42.124;24.752;2023-11-21T03:15:49;18.65;;;10.30;;
80231;SDS011;74189;42.124;24.752;2023-11-21T03:18:14;18.13;;;8.98;;
80231;SDS011;74189;42.124;24.752;2023-11-21T03:20:40;17.10;;;9.38;;
80231;SDS011;74189;42.124;24.752;2023-11-21T03:23:06;19.30;;;9.85;;
80231;SDS011;74189;42.124;24.752;2023-11-21T03:25:32;17.83;;;9.13;;
80231;SDS011;74189;42.124;24.752;2023-11-21T03:27:57;20.33;;;9.63;;
80231;SDS011;74189;42.124;24.752;2023-11-21T03:30:23;22.83;;;10.32;;
80231;SDS011;74189;42.124;24.752;2023-11-21T03:32:49;23.70;;;10.98;;
80231;SDS011;74189;42.124;24.752;2023-11-21T03:35:14;22.50;;;10.95;;
80231;SDS011;74189;42.124;24.752;2023-11-21T03:37:40;21.55;;;10.15;;
80231;SDS011;74189;42.124;24.752;2023-11-21T03:40:07;26.50;;;10.93;;
80231;SDS011;74189;42.124;24.752;2023-11-21T03:42:37;24.38;;;9.82;;
80231;SDS011;74189;42.124;24.752;2023-11-21T03:45:04;16.27;;;8.30;;
80231;SDS011;74189;42.124;24.752;2023-11-21T03:47:30;19.70;;;8.75;;
80231;SDS011;74189;42.124;24.752;2023-11-21T03:49:56;17.35;;;8.52;;
80231;SDS011;74189;42.124;24.752;2023-11-21T03:52:21;19.80;;;8.75;;
80231;SDS011;74189;42.124;24.752;2023-11-21T03:54:47;20.98;;;10.30;;
80231;SDS011;74189;42.124;24.752;2023-11-21T03:57:13;20.25;;;10.77;;
80231;SDS011;74189;42.124;24.752;2023-11-21T03:59:42;19.40;;;8.98;;
80231;SDS011;74189;42.124;24.752;2023-11-21T04:02:08;20.42;;;10.23;;
80231;SDS011;74189;42.124;24.752;2023-11-21T04:04:34;21.15;;;10.60;;
80231;SDS011;74189;42.124;24.752;2023-11-21T04:07:01;23.92;;;10.25;;
80231;SDS011;74189;42.124;24.752;2023-11-21T04:09:26;20.60;;;10.27;;
80231;SDS011;74189;42.124;24.752;2023-11-21T04:11:53;22.60;;;11.68;;
80231;SDS011;74189;42.124;24.752;2023-11-21T04:14:19;20.35;;;10.60;;
80231;SDS011;74189;42.124;24.752;2023-11-21T04:16:45;24.40;;;10.20;;
80231;SDS011;74189;42.124;24.752;2023-11-21T04:19:10;19.75;;;10.93;;
80231;SDS011;74189;42.124;24.752;2023-11-21T04:21:39;24.00;;;10.88;;
80231;SDS011;74189;42.124;24.752;2023-11-21T04:24:06;19.80;;;9.98;;
80231;SDS011;74189;42.124;24.752;2023-11-21T04:26:31;23.95;;;10.88;;
80231;SDS011;74189;42.124;24.752;2023-11-21T04:28:57;19.38;;;10.30;;
80231;SDS011;74189;42.124;24.752;2023-11-21T04:31:23;18.60;;;9.77;;
80231;SDS011;74189;42.124;24.752;2023-11-21T04:33:48;19.17;;;9.82;;
80231;SDS011;74189;42.124;24.752;2023-11-21T04:36:14;18.73;;;9.93;;
80231;SDS011;74189;42.124;24.752;2023-11-21T04:38:39;19.80;;;9.80;;
80231;SDS011;74189;42.124;24.752;2023-11-21T04:41:06;27.83;;;10.45;;
80231;SDS011;74189;42.124;24.752;2023-11-21T04:43:32;18.80;;;9.60;;
80231;SDS011;74189;42.124;24.752;2023-11-21T04:45:58;17.92;;;8.98;;
80231;SDS011;74189;42.124;24.752;2023-11-21T04:48:23;14.18;;;8.05;;
80231;SDS011;74189;42.124;24.752;2023-11-21T04:50:50;12.25;;;7.53;;
80231;SDS011;74189;42.124;24.752;2023-11-21T04:53:16;14.45;;;9.18;;
80231;SDS011;74189;42.124;24.752;2023-11-21T04:55:42;23.50;;;10.35;;
80231;SDS011;74189;42.124;24.752;2023-11-21T04:58:09;18.17;;;9.38;;
80231;SDS011;74189;42.124;24.752;2023-11-21T05:00:35;24.55;;;8.55;;
80231;SDS011;74189;42.124;24.752;2023-11-21T05:03:01;26.00;;;9.55;;
80231;SDS011;74189;42.124;24.752;2023-11-21T05:05:28;18.88;;;9.95;;
80231;SDS011;74189;42.124;24.752;2023-11-21T05:07:57;22.55;;;9.23;;
80231;SDS011;74189;42.124;24.752;2023-11-21T05:10:23;17.55;;;8.73;;
80231;SDS011;74189;42.124;24.752;2023-11-21T05:12:48;20.83;;;8.82;;
80231;SDS011;74189;42.124;24.752;2023-11-21T05:15:16;17.23;;;8.90;;
80231;SDS011;74189;42.124;24.752;2023-11-21T05:17:42;20.15;;;10.23;;
80231;SDS011;74189;42.124;24.752;2023-11-21T05:20:14;19.50;;;9.27;;
80231;SDS011;74189;42.124;24.752;2023-11-21T05:22:47;19.77;;;9.07;;
80231;SDS011;74189;42.124;24.752;2023-11-21T05:25:16;29.08;;;10.40;;
80231;SDS011;74189;42.124;24.752;2023-11-21T05:27:47;21.38;;;10.05;;
80231;SDS011;74189;42.124;24.752;2023-11-21T05:30:13;26.70;;;12.18;;
80231;SDS011;74189;42.124;24.752;2023-11-21T05:32:39;29.75;;;13.38;;
80231;SDS011;74189;42.124;24.752;2023-11-21T05:35:08;31.48;;;13.38;;
80231;SDS011;74189;42.124;24.752;2023-11-21T05:37:37;37.58;;;13.93;;
80231;SDS011;74189;42.124;24.752;2023-11-21T05:40:07;40.38;;;13.05;;
80231;SDS011;74189;42.124;24.752;2023-11-21T05:42:33;38.28;;;14.40;;
80231;SDS011;74189;42.124;24.752;2023-11-21T05:45:02;31.85;;;13.10;;
80231;SDS011;74189;42.124;24.752;2023-11-21T05:47:37;32.75;;;12.82;;
80231;SDS011;74189;42.124;24.752;2023-11-21T05:50:05;31.63;;;12.52;;
80231;SDS011;74189;42.124;24.752;2023-11-21T05:52:34;35.45;;;13.02;;
80231;SDS011;74189;42.124;24.752;2023-11-21T05:55:01;30.08;;;12.55;;
80231;SDS011;74189;42.124;24.752;2023-11-21T05:57:26;27.67;;;11.88;;
80231;SDS011;74189;42.124;24.752;2023-11-21T05:59:52;25.73;;;10.82;;
80231;SDS011;74189;42.124;24.752;2023-11-21T06:02:18;19.35;;;10.43;;
80231;SDS011;74189;42.124;24.752;2023-11-21T06:04:44;28.65;;;11.15;;
80231;SDS011;74189;42.124;24.752;2023-11-21T06:07:09;39.05;;;11.60;;
80231;SDS011;74189;42.124;24.752;2023-11-21T06:09:35;22.15;;;10.93;;
80231;SDS011;74189;42.124;24.752;2023-11-21T06:12:02;23.13;;;11.38;;
80231;SDS011;74189;42.124;24.752;2023-11-21T06:14:29;27.77;;;11.70;;
80231;SDS011;74189;42.124;24.752;2023-11-21T06:16:54;28.48;;;11.95;;
80231;SDS011;74189;42.124;24.752;2023-11-21T06:19:21;29.77;;;11.18;;
80231;SDS011;74189;42.124;24.752;2023-11-21T06:21:47;23.92;;;10.90;;
80231;SDS011;74189;42.124;24.752;2023-11-21T06:24:13;24.60;;;11.15;;
80231;SDS011;74189;42.124;24.752;2023-11-21T06:26:40;23.77;;;10.13;;
80231;SDS011;74189;42.124;24.752;2023-11-21T06:29:06;22.40;;;10.02;;
80231;SDS011;74189;42.124;24.752;2023-11-21T06:31:32;22.77;;;9.90;;
80231;SDS011;74189;42.124;24.752;2023-11-21T06:33:58;16.95;;;10.10;;
80231;SDS011;74189;42.124;24.752;2023-11-21T06:36:25;22.05;;;9.23;;
80231;SDS011;74189;42.124;24.752;2023-11-21T06:38:51;22.80;;;9.05;;
80231;SDS011;74189;42.124;24.752;2023-11-21T06:41:17;17.60;;;8.75;;
80231;SDS011;74189;42.124;24.752;2023-11-21T06:43:43;15.10;;;8.25;;
80231;SDS011;74189;42.124;24.752;2023-11-21T06:46:11;16.98;;;8.18;;
80231;SDS011;74189;42.124;24.752;2023-11-21T06:48:40;14.60;;;8.32;;
80231;SDS011;74189;42.124;24.752;2023-11-21T06:51:09;21.42;;;9.02;;
80231;SDS011;74189;42.124;24.752;2023-11-21T06:53:37;16.90;;;8.60;;
80231;SDS011;74189;42.124;24.752;2023-11-21T06:56:02;18.13;;;9.50;;
80231;SDS011;74189;42.124;24.752;2023-11-21T06:58:28;25.48;;;9.27;;
80231;SDS011;74189;42.124;24.752;2023-11-21T07:00:54;20.70;;;8.50;;
80231;SDS011;74189;42.124;24.752;2023-11-21T07:03:20;20.33;;;8.30;;
80231;SDS011;74189;42.124;24.752;2023-11-21T07:05:45;15.82;;;8.73;;
80231;SDS011;74189;42.124;24.752;2023-11-21T07:08:11;16.67;;;8.40;;
80231;SDS011;74189;42.124;24.752;2023-11-21T07:10:37;19.23;;;9.38;;
80231;SDS011;74189;42.124;24.752;2023-11-21T07:13:03;15.57;;;8.43;;
80231;SDS011;74189;42.124;24.752;2023-11-21T07:15:29;20.60;;;10.13;;
80231;SDS011;74189;42.124;24.752;2023-11-21T07:17:55;27.00;;;11.52;;
80231;SDS011;74189;42.124;24.752;2023-11-21T07:20:20;33.70;;;12.63;;
80231;SDS011;74189;42.124;24.752;2023-11-21T07:22:46;28.05;;;14.13;;
80231;SDS011;74189;42.124;24.752;2023-11-21T07:25:12;30.77;;;13.73;;
80231;SDS011;74189;42.124;24.752;2023-11-21T07:27:37;26.25;;;13.68;;
80231;SDS011;74189;42.124;24.752;2023-11-21T07:30:03;33.03;;;14.63;;
80231;SDS011;74189;42.124;24.752;2023-11-21T07:32:31;28.63;;;14.43;;
80231;SDS011;74189;42.124;24.752;2023-11-21T07:34:56;28.58;;;13.52;;
80231;SDS011;74189;42.124;24.752;2023-11-21T07:37:24;33.40;;;13.82;;
80231;SDS011;74189;42.124;24.752;2023-11-21T07:39:51;17.13;;;9.75;;
80231;SDS011;74189;42.124;24.752;2023-11-21T07:42:21;18.48;;;9.32;;
80231;SDS011;74189;42.124;24.752;2023-11-21T07:44:51;23.23;;;9.60;;
80231;SDS011;74189;42.124;24.752;2023-11-21T07:47:17;17.92;;;9.35;;
80231;SDS011;74189;42.124;24.752;2023-11-21T07:49:43;21.20;;;9.18;;
80231;SDS011;74189;42.124;24.752;2023-11-21T07:52:10;24.00;;;9.90;;
80231;SDS011;74189;42.124;24.752;2023-11-21T07:54:35;23.40;;;12.95;;
80231;SDS011;74189;42.124;24.752;2023-11-21T07:57:01;30.38;;;12.88;;
80231;SDS011;74189;42.124;24.752;2023-11-21T07:59:29;34.50;;;14.13;;
80231;SDS011;74189;42.124;24.752;2023-11-21T08:01:54;36.25;;;15.10;;
80231;SDS011;74189;42.124;24.752;2023-11-21T08:04:21;32.80;;;14.05;;
80231;SDS011;74189;42.124;24.752;2023-11-21T08:06:47;41.03;;;14.52;;
80231;SDS011;74189;42.124;24.752;2023-11-21T08:09:12;29.00;;;12.60;;
80231;SDS011;74189;42.124;24.752;2023-11-21T08:11:38;38.72;;;15.23;;
80231;SDS011;74189;42.124;24.752;2023-11-21T08:14:04;29.42;;;15.38;;
80231;SDS011;74189;42.124;24.752;2023-11-21T08:16:30;45.03;;;15.95;;
80231;SDS011;74189;42.124;24.752;2023-11-21T08:18:56;38.47;;;14.65;;
80231;SDS011;74189;42.124;24.752;2023-11-21T08:21:21;41.30;;;15.18;;
80231;SDS011;74189;42.124;24.752;2023-11-21T08:23:53;34.25;;;14.50;;
80231;SDS011;74189;42.124;24.752;2023-11-21T08:26:20;46.88;;;14.93;;
80231;SDS011;74189;42.124;24.752;2023-11-21T08:28:46;28.42;;;14.77;;
80231;SDS011;74189;42.124;24.752;2023-11-21T08:31:12;44.85;;;16.02;;
80231;SDS011;74189;42.124;24.752;2023-11-21T08:33:38;38.47;;;14.63;;
80231;SDS011;74189;42.124;24.752;2023-11-21T08:36:07;33.20;;;16.02;;
80231;SDS011;74189;42.124;24.752;2023-11-21T08:38:34;41.85;;;16.08;;
80231;SDS011;74189;42.124;24.752;2023-11-21T08:41:03;37.53;;;16.65;;
80231;SDS011;74189;42.124;24.752;2023-11-21T08:46:04;29.48;;;15.15;;
80231;SDS011;74189;42.124;24.752;2023-11-21T08:48:31;41.15;;;15.15;;
80231;SDS011;74189;42.124;24.752;2023-11-21T08:50:57;34.75;;;15.32;;
80231;SDS011;74189;42.124;24.752;2023-11-21T08:53:22;38.58;;;14.70;;
80231;SDS011;74189;42.124;24.752;2023-11-21T08:55:48;52.35;;;16.20;;
80231;SDS011;74189;42.124;24.752;2023-11-21T08:58:15;36.80;;;15.48;;
80231;SDS011;74189;42.124;24.752;2023-11-21T09:00:40;32.85;;;15.45;;
80231;SDS011;74189;42.124;24.752;2023-11-21T09:03:06;37.08;;;14.57;;
80231;SDS011;74189;42.124;24.752;2023-11-21T09:05:34;30.50;;;14.98;;
80231;SDS011;74189;42.124;24.752;2023-11-21T09:08:03;33.65;;;15.02;;
80231;SDS011;74189;42.124;24.752;2023-11-21T09:10:29;28.52;;;14.38;;
80231;SDS011;74189;42.124;24.752;2023-11-21T09:12:55;28.98;;;14.43;;
80231;SDS011;74189;42.124;24.752;2023-11-21T09:15:20;33.22;;;15.07;;
80231;SDS011;74189;42.124;24.752;2023-11-21T09:17:46;32.15;;;15.07;;
80231;SDS011;74189;42.124;24.752;2023-11-21T09:20:12;34.60;;;14.77;;
80231;SDS011;74189;42.124;24.752;2023-11-21T09:22:39;26.05;;;13.38;;
80231;SDS011;74189;42.124;24.752;2023-11-21T09:25:05;25.23;;;13.90;;
80231;SDS011;74189;42.124;24.752;2023-11-21T09:27:33;29.23;;;12.50;;
80231;SDS011;74189;42.124;24.752;2023-11-21T09:30:00;27.65;;;12.75;;
80231;SDS011;74189;42.124;24.752;2023-11-21T09:32:26;27.17;;;11.75;;
80231;SDS011;74189;42.124;24.752;2023-11-21T09:34:52;24.88;;;12.52;;
80231;SDS011;74189;42.124;24.752;2023-11-21T09:37:20;28.17;;;12.35;;
80231;SDS011;74189;42.124;24.752;2023-11-21T09:39:46;25.48;;;12.18;;
80231;SDS011;74189;42.124;24.752;2023-11-21T09:42:13;23.38;;;12.30;;
80231;SDS011;74189;42.124;24.752;2023-11-21T09:44:54;39.08;;;13.20;;
80231;SDS011;74189;42.124;24.752;2023-11-21T09:47:38;55.13;;;14.65;;
80231;SDS011;74189;42.124;24.752;2023-11-21T09:50:04;21.92;;;12.00;;
80231;SDS011;74189;42.124;24.752;2023-11-21T09:52:33;28.30;;;13.02;;
80231;SDS011;74189;42.124;24.752;2023-11-21T09:55:16;21.80;;;12.55;;
80231;SDS011;74189;42.124;24.752;2023-11-21T09:57:47;37.13;;;16.92;;
80231;SDS011;74189;42.124;24.752;2023-11-21T10:00:14;69.25;;;18.65;;
80231;SDS011;74189;42.124;24.752;2023-11-21T10:02:42;55.72;;;18.42;;
80231;SDS011;74189;42.124;24.752;2023-11-21T10:05:08;32.42;;;15.90;;
80231;SDS011;74189;42.124;24.752;2023-11-21T10:07:39;36.85;;;15.43;;
80231;SDS011;74189;42.124;24.752;2023-11-21T10:10:07;33.88;;;16.75;;
80231;SDS011;74189;42.124;24.752;2023-11-21T10:12:34;46.00;;;16.70;;
80231;SDS011;74189;42.124;24.752;2023-11-21T10:15:00;42.60;;;16.20;;
80231;SDS011;74189;42.124;24.752;2023-11-21T10:17:31;34.08;;;15.90;;
80231;SDS011;74189;42.124;24.752;2023-11-21T10:20:04;42.25;;;15.65;;
80231;SDS011;74189;42.124;24.752;2023-11-21T10:22:37;35.08;;;16.70;;
80231;SDS011;74189;42.124;24.752;2023-11-21T10:25:06;39.45;;;15.32;;
80231;SDS011;74189;42.124;24.752;2023-11-21T10:27:33;39.47;;;15.98;;
80231;SDS011;74189;42.124;24.752;2023-11-21T10:30:04;35.90;;;14.18;;
80231;SDS011;74189;42.124;24.752;2023-11-21T10:32:30;38.78;;;13.77;;
80231;SDS011;74189;42.124;24.752;2023-11-21T10:34:59;33.42;;;14.25;;
80231;SDS011;74189;42.124;24.752;2023-11-21T10:37:34;44.20;;;13.77;;
80231;SDS011;74189;42.124;24.752;2023-11-21T10:40:11;27.88;;;13.73;;
80231;SDS011;74189;42.124;24.752;2023-11-21T10:42:40;42.53;;;14.45;;
80231;SDS011;74189;42.124;24.752;2023-11-21T10:45:07;31.65;;;13.52;;
80231;SDS011;74189;42.124;24.752;2023-11-21T10:47:40;30.25;;;13.18;;
80231;SDS011;74189;42.124;24.752;2023-11-21T10:50:06;27.05;;;13.45;;
80231;SDS011;74189;42.124;24.752;2023-11-21T10:52:36;42.95;;;13.65;;
80231;SDS011;74189;42.124;24.752;2023-11-21T10:55:15;24.48;;;13.07;;
80231;SDS011;74189;42.124;24.752;2023-11-21T10:57:43;32.33;;;13.30;;
80231;SDS011;74189;42.124;24.752;2023-11-21T11:00:13;37.92;;;13.38;;
80231;SDS011;74189;42.124;24.752;2023-11-21T11:02:41;26.40;;;12.63;;
80231;SDS011;74189;42.124;24.752;2023-11-21T11:05:08;28.98;;;13.20;;
80231;SDS011;74189;42.124;24.752;2023-11-21T11:07:36;28.42;;;14.13;;
80231;SDS011;74189;42.124;24.752;2023-11-21T11:10:05;25.95;;;13.40;;
80231;SDS011;74189;42.124;24.752;2023-11-21T11:12:33;34.97;;;15.10;;
80231;SDS011;74189;42.124;24.752;2023-11-21T11:15:01;38.45;;;13.80;;
80231;SDS011;74189;42.124;24.752;2023-11-21T11:17:28;27.88;;;14.48;;
80231;SDS011;74189;42.124;24.752;2023-11-21T11:19:53;38.25;;;14.43;;
80231;SDS011;74189;42.124;24.752;2023-11-21T11:27:59;37.97;;;15.25;;
80231;SDS011;74189;42.124;24.752;2023-11-21T11:38:47;34.75;;;13.02;;
80231;SDS011;74189;42.124;24.752;2023-11-21T11:41:26;29.55;;;12.77;;
80231;SDS011;74189;42.124;24.752;2023-11-21T11:43:55;25.10;;;13.77;;
80231;SDS011;74189;42.124;24.752;2023-11-21T11:46:25;31.42;;;13.70;;
80231;SDS011;74189;42.124;24.752;2023-11-21T11:49:06;33.05;;;14.52;;
80231;SDS011;74189;42.124;24.752;2023-11-21T11:51:33;32.20;;;13.13;;
80231;SDS011;74189;42.124;24.752;2023-11-21T11:54:00;25.55;;;13.48;;
80231;SDS011;74189;42.124;24.752;2023-11-21T11:56:28;28.42;;;13.18;;
80231;SDS011;74189;42.124;24.752;2023-11-21T11:58:59;32.35;;;13.50;;
80231;SDS011;74189;42.124;24.752;2023-11-21T12:01:27;27.05;;;13.65;;
80231;SDS011;74189;42.124;24.752;2023-11-21T12:06:56;31.55;;;14.43;;
80231;SDS011;74189;42.124;24.752;2023-11-21T12:09:25;31.25;;;14.95;;
80231;SDS011;74189;42.124;24.752;2023-11-21T12:11:51;29.25;;;15.02;;
80231;SDS011;74189;42.124;24.752;2023-11-21T12:14:19;34.08;;;15.75;;
80231;SDS011;74189;42.124;24.752;2023-11-21T12:16:45;32.70;;;16.77;;
80231;SDS011;74189;42.124;24.752;2023-11-21T12:19:11;35.58;;;17.83;;
80231;SDS011;74189;42.124;24.752;2023-11-21T12:21:37;29.55;;;18.00;;
80231;SDS011;74189;42.124;24.752;2023-11-21T12:24:04;34.72;;;17.83;;
80231;SDS011;74189;42.124;24.752;2023-11-21T12:26:33;36.60;;;18.42;;
80231;SDS011;74189;42.124;24.752;2023-11-21T12:29:00;33.75;;;17.15;;
80231;SDS011;74189;42.124;24.752;2023-11-21T12:31:28;47.83;;;17.30;;
80231;SDS011;74189;42.124;24.752;2023-11-21T12:33:54;27.90;;;16.52;;
80231;SDS011;74189;42.124;24.752;2023-11-21T12:36:21;31.13;;;16.80;;
80231;SDS011;74189;42.124;24.752;2023-11-21T12:38:47;29.90;;;17.77;;
80231;SDS011;74189;42.124;24.752;2023-11-21T12:41:13;37.28;;;17.50;;
80231;SDS011;74189;42.124;24.752;2023-11-21T12:43:40;34.80;;;18.17;;
80231;SDS011;74189;42.124;24.752;2023-11-21T12:46:06;35.67;;;18.63;;
80231;SDS011;74189;42.124;24.752;2023-11-21T12:48:39;37.25;;;19.90;;
80231;SDS011;74189;42.124;24.752;2023-11-21T12:51:09;37.08;;;18.63;;
80231;SDS011;74189;42.124;24.752;2023-11-21T12:53:36;36.10;;;18.60;;
80231;SDS011;74189;42.124;24.752;2023-11-21T12:56:06;38.63;;;18.60;;
80231;SDS011;74189;42.124;24.752;2023-11-21T12:58:35;38.85;;;19.10;;
80231;SDS011;74189;42.124;24.752;2023-11-21T13:01:01;42.03;;;18.10;;
80231;SDS011;74189;42.124;24.752;2023-11-21T13:03:29;42.53;;;18.65;;
80231;SDS011;74189;42.124;24.752;2023-11-21T13:05:55;33.15;;;18.10;;
80231;SDS011;74189;42.124;24.752;2023-11-21T13:08:24;36.95;;;18.35;;
80231;SDS011;74189;42.124;24.752;2023-11-21T13:10:54;40.53;;;18.15;;
80231;SDS011;74189;42.124;24.752;2023-11-21T13:13:21;34.42;;;17.98;;
80231;SDS011;74189;42.124;24.752;2023-11-21T13:15:56;39.40;;;18.48;;
80231;SDS011;74189;42.124;24.752;2023-11-21T13:18:33;47.95;;;19.25;;
80231;SDS011;74189;42.124;24.752;2023-11-21T13:20:59;40.47;;;18.90;;
80231;SDS011;74189;42.124;24.752;2023-11-21T13:23:34;44.42;;;19.25;;
80231;SDS011;74189;42.124;24.752;2023-11-21T13:26:01;31.95;;;19.23;;
80231;SDS011;74189;42.124;24.752;2023-11-21T13:28:29;32.33;;;18.38;;
80231;SDS011;74189;42.124;24.752;2023-11-21T13:30:58;46.88;;;19.95;;
80231;SDS011;74189;42.124;24.752;2023-11-21T13:33:44;42.75;;;19.60;;
80231;SDS011;74189;42.124;24.752;2023-11-21T13:36:15;40.00;;;19.70;;
80231;SDS011;74189;42.124;24.752;2023-11-21T13:38:47;35.30;;;19.38;;
80231;SDS011;74189;42.124;24.752;2023-11-21T13:41:13;46.17;;;20.52;;
80231;SDS011;74189;42.124;24.752;2023-11-21T13:43:39;41.78;;;20.33;;
80231;SDS011;74189;42.124;24.752;2023-11-21T13:46:09;47.42;;;20.88;;
80231;SDS011;74189;42.124;24.752;2023-11-21T13:48:46;53.85;;;21.85;;
80231;SDS011;74189;42.124;24.752;2023-11-21T13:51:15;43.60;;;20.83;;
80231;SDS011;74189;42.124;24.752;2023-11-21T13:53:45;40.95;;;21.10;;
80231;SDS011;74189;42.124;24.752;2023-11-21T13:56:18;35.58;;;20.17;;
80231;SDS011;74189;42.124;24.752;2023-11-21T13:58:53;43.72;;;21.25;;
80231;SDS011;74189;42.124;24.752;2023-11-21T14:01:19;47.17;;;21.90;;
80231;SDS011;74189;42.124;24.752;2023-11-21T14:03:48;44.28;;;21.77;;
80231;SDS011;74189;42.124;24.752;2023-11-21T14:06:21;45.85;;;23.10;;
80231;SDS011;74189;42.124;24.752;2023-11-21T14:08:52;39.28;;;21.70;;
80231;SDS011;74189;42.124;24.752;2023-11-21T14:11:19;41.15;;;21.52;;
80231;SDS011;74189;42.124;24.752;2023-11-21T14:13:47;46.58;;;21.70;;
80231;SDS011;74189;42.124;24.752;2023-11-21T14:16:13;41.83;;;19.95;;
80231;SDS011;74189;42.124;24.752;2023-11-21T14:18:41;36.10;;;20.40;;
80231;SDS011;74189;42.124;24.752;2023-11-21T14:21:21;40.83;;;20.88;;
80231;SDS011;74189;42.124;24.752;2023-11-21T14:23:46;43.80;;;21.98;;
80231;SDS011;74189;42.124;24.752;2023-11-21T14:26:13;48.58;;;22.48;;
80231;SDS011;74189;42.124;24.752;2023-11-21T14:28:40;52.38;;;23.33;;
80231;SDS011;74189;42.124;24.752;2023-11-21T14:31:06;55.78;;;22.20;;
80231;SDS011;74189;42.124;24.752;2023-11-21T14:33:33;50.75;;;22.77;;